createdAt,value
2023-04-25T00:01:18.693Z,99.90
2023-04-25T00:04:07.623Z,99.90
2023-04-25T00:06:55.876Z,99.90
2023-04-25T00:09:43.924Z,99.90
2023-04-25T00:12:31.994Z,99.90
2023-04-25T00:15:21.551Z,99.90
2023-04-25T00:18:09.921Z,99.90
2023-04-25T00:20:58.136Z,99.90
2023-04-25T00:23:47.551Z,99.90
2023-04-25T00:26:35.725Z,99.90
2023-04-25T00:29:23.784Z,99.90
2023-04-25T00:32:13.114Z,99.90
2023-04-25T00:35:01.177Z,99.90
2023-04-25T00:37:49.194Z,99.90
2023-04-25T00:40:37.229Z,99.90
2023-04-25T00:43:25.587Z,99.90
2023-04-25T00:46:13.654Z,99.90
2023-04-25T00:49:03.020Z,99.90
2023-04-25T00:51:51.144Z,99.90
2023-04-25T00:54:39.340Z,99.90
2023-04-25T00:57:27.583Z,99.90
2023-04-25T01:00:16.165Z,99.90
2023-04-25T01:03:05.459Z,99.90
2023-04-25T01:05:55.399Z,99.90
2023-04-25T01:08:43.455Z,99.90
2023-04-25T01:11:31.499Z,99.90
2023-04-25T01:14:19.545Z,99.90
2023-04-25T01:17:08.803Z,99.90
2023-04-25T01:19:56.912Z,99.90
2023-04-25T01:22:46.288Z,99.90
2023-04-25T01:25:34.472Z,99.90
2023-04-25T01:28:23.055Z,99.90
2023-04-25T01:31:11.441Z,99.90
2023-04-25T01:33:59.550Z,99.90
2023-04-25T01:36:49.076Z,99.90
2023-04-25T01:39:38.858Z,99.90
2023-04-25T01:42:26.894Z,99.90
2023-04-25T01:45:15.015Z,99.90
2023-04-25T01:48:03.095Z,99.90
2023-04-25T01:50:51.182Z,99.90
2023-04-25T01:53:39.465Z,99.90
2023-04-25T01:56:31.772Z,99.90
2023-04-25T01:59:20.919Z,99.90
2023-04-25T02:02:08.997Z,99.90
2023-04-25T02:04:57.188Z,99.90
2023-04-25T02:07:45.245Z,99.90
2023-04-25T02:10:33.488Z,99.90
2023-04-25T02:13:22.875Z,99.90
2023-04-25T02:16:10.937Z,99.90
2023-04-25T02:18:58.956Z,99.90
2023-04-25T02:21:47.276Z,99.90
2023-04-25T02:24:35.857Z,99.90
2023-04-25T02:27:23.897Z,99.90
2023-04-25T02:30:13.745Z,99.90
2023-04-25T02:33:01.809Z,99.90
2023-04-25T02:35:49.908Z,99.90
2023-04-25T02:38:37.916Z,99.90
2023-04-25T02:41:25.903Z,99.90
2023-04-25T02:44:13.935Z,99.90
2023-04-25T02:47:03.368Z,99.90
2023-04-25T02:49:51.448Z,99.90
2023-04-25T02:52:39.470Z,99.90
2023-04-25T02:55:28.494Z,99.90
2023-04-25T02:58:16.644Z,99.90
2023-04-25T03:01:04.768Z,99.90
2023-04-25T03:03:54.494Z,99.90
2023-04-25T03:06:42.860Z,99.90
2023-04-25T03:09:31.027Z,99.90
2023-04-25T03:12:19.025Z,99.90
2023-04-25T03:15:07.584Z,99.90
2023-04-25T03:17:55.630Z,99.90
2023-04-25T03:20:45.083Z,99.90
2023-04-25T03:23:33.117Z,99.90
2023-04-25T03:26:21.618Z,99.90
2023-04-25T03:29:09.673Z,99.90
2023-04-25T03:31:57.766Z,99.90
2023-04-25T03:34:45.863Z,99.90
2023-04-25T03:37:35.312Z,99.90
2023-04-25T03:40:23.393Z,99.90
2023-04-25T03:43:12.236Z,99.90
2023-04-25T03:46:00.364Z,99.90
2023-04-25T03:48:48.400Z,99.90
2023-04-25T03:51:36.406Z,99.90
2023-04-25T03:54:25.968Z,99.90
2023-04-25T03:57:13.947Z,99.90
2023-04-25T04:00:02.071Z,99.90
2023-04-25T04:02:50.211Z,99.90
2023-04-25T04:05:41.591Z,99.90
2023-04-25T04:08:29.692Z,99.90
2023-04-25T04:11:19.089Z,99.90
2023-04-25T04:14:07.119Z,99.90
2023-04-25T04:16:55.120Z,99.90
2023-04-25T04:19:43.234Z,99.90
2023-04-25T04:22:31.269Z,99.90
2023-04-25T04:25:19.523Z,99.90
2023-04-25T04:28:08.882Z,99.90
2023-04-25T04:30:56.953Z,99.90
2023-04-25T04:33:45.659Z,99.90
2023-04-25T04:36:33.768Z,99.90
2023-04-25T04:39:22.298Z,99.90
2023-04-25T04:42:12.452Z,99.90
2023-04-25T04:45:02.548Z,99.90
2023-04-25T04:47:50.659Z,99.90
2023-04-25T04:50:39.884Z,99.90
2023-04-25T04:53:27.941Z,99.90
2023-04-25T04:56:16.271Z,99.90
2023-04-25T04:59:04.668Z,99.90
2023-04-25T05:01:54.256Z,99.90
2023-04-25T05:04:42.349Z,99.90
2023-04-25T05:07:30.503Z,99.90
2023-04-25T05:10:18.777Z,99.90
2023-04-25T05:13:06.899Z,99.90
2023-04-25T05:15:54.902Z,99.90
2023-04-25T05:18:44.252Z,99.90
2023-04-25T05:21:32.443Z,99.90
2023-04-25T05:24:20.493Z,99.90
2023-04-25T05:27:08.521Z,99.90
2023-04-25T05:29:56.551Z,99.90
2023-04-25T05:32:44.597Z,99.90
2023-04-25T05:35:34.106Z,99.90
2023-04-25T05:38:22.148Z,99.90
2023-04-25T05:41:10.152Z,99.90
2023-04-25T05:43:58.646Z,99.90
2023-04-25T05:46:46.932Z,99.90
2023-04-25T05:49:35.620Z,99.90
2023-04-25T05:52:24.965Z,99.90
2023-04-25T05:55:12.931Z,99.90
2023-04-25T05:58:00.991Z,99.90
2023-04-25T06:00:48.966Z,99.90
2023-04-25T06:03:38.961Z,99.90
2023-04-25T06:06:27.834Z,99.90
2023-04-25T06:09:17.208Z,99.90
2023-04-25T06:12:05.388Z,99.90
2023-04-25T06:14:53.490Z,99.90
2023-04-25T06:17:41.620Z,99.90
2023-04-25T06:20:29.854Z,99.90
2023-04-25T06:23:17.887Z,99.90
2023-04-25T06:26:07.188Z,99.90
2023-04-25T06:28:55.189Z,99.90
2023-04-25T06:31:43.314Z,99.90
2023-04-25T06:34:31.484Z,99.90
2023-04-25T06:37:19.498Z,99.90
2023-04-25T06:40:08.142Z,99.90
2023-04-25T06:42:57.465Z,99.90
2023-04-25T06:45:47.706Z,99.90
2023-04-25T06:48:36.478Z,99.90
2023-04-25T06:51:25.406Z,99.90
2023-04-25T06:54:13.398Z,99.90
2023-04-25T06:57:02.311Z,99.90
2023-04-25T06:59:51.639Z,99.90
2023-04-25T07:02:39.743Z,99.90
2023-04-25T07:05:27.801Z,99.90
2023-04-25T07:08:15.896Z,99.90
2023-04-25T07:11:03.952Z,99.90
2023-04-25T07:13:51.995Z,99.90
2023-04-25T07:16:41.512Z,99.90
2023-04-25T07:19:30.753Z,99.90
2023-04-25T07:22:18.864Z,99.90
2023-04-25T07:25:07.426Z,99.90
2023-04-25T07:27:55.436Z,99.90
2023-04-25T07:30:43.466Z,99.90
2023-04-25T07:33:32.829Z,99.90
2023-04-25T07:36:20.839Z,99.90
2023-04-25T07:39:10.025Z,99.90
2023-04-25T07:41:59.441Z,99.90
2023-04-25T07:44:48.300Z,99.90
2023-04-25T07:47:36.333Z,99.90
2023-04-25T07:50:25.857Z,99.90
2023-04-25T07:53:14.105Z,99.90
2023-04-25T07:56:02.134Z,99.90
2023-04-25T07:58:50.353Z,99.90
2023-04-25T08:01:38.550Z,99.90
2023-04-25T08:04:27.418Z,99.90
2023-04-25T08:07:17.030Z,99.90
2023-04-25T08:10:05.670Z,99.90
2023-04-25T08:12:53.731Z,99.90
2023-04-25T08:15:41.891Z,99.90
2023-04-25T08:18:29.945Z,99.90
2023-04-25T08:21:18.079Z,99.90
2023-04-25T08:24:07.729Z,99.90
2023-04-25T08:26:56.754Z,99.90
2023-04-25T08:29:44.923Z,99.90
2023-04-25T08:32:32.972Z,99.90
2023-04-25T08:35:22.066Z,99.90
2023-04-25T08:38:10.118Z,99.90
2023-04-25T08:41:01.885Z,99.90
2023-04-25T08:43:50.411Z,99.90
2023-04-25T08:46:39.865Z,99.90
2023-04-25T08:49:28.042Z,99.90
2023-04-25T08:52:16.160Z,99.90
2023-04-25T08:55:04.737Z,99.90
2023-04-25T08:57:55.585Z,99.90
2023-04-25T09:00:43.779Z,99.90
2023-04-25T09:03:32.080Z,99.90
2023-04-25T09:06:21.168Z,99.90
2023-04-25T09:09:11.731Z,99.90
2023-04-25T09:12:00.521Z,99.90
2023-04-25T09:17:45.731Z,99.90
2023-04-25T09:20:37.681Z,99.90
2023-04-25T09:23:28.530Z,99.90
2023-04-25T09:26:17.971Z,99.90
2023-04-25T09:29:07.668Z,99.90
2023-04-25T09:31:57.017Z,99.90
2023-04-25T09:34:49.199Z,99.90
2023-04-25T09:37:37.322Z,99.90
2023-04-25T09:40:25.539Z,99.90
2023-04-25T09:43:20.691Z,99.90
2023-04-25T09:46:10.847Z,99.90
2023-04-25T09:48:59.022Z,99.90
2023-04-25T09:51:57.706Z,99.90
2023-04-25T09:54:46.196Z,99.90
2023-04-25T09:57:34.329Z,99.90
2023-04-25T10:00:23.434Z,99.90
2023-04-25T10:03:13.074Z,99.90
2023-04-25T10:06:01.868Z,99.90
2023-04-25T10:08:53.247Z,99.90
2023-04-25T10:11:41.659Z,99.90
2023-04-25T10:14:30.059Z,99.90
2023-04-25T10:17:18.752Z,99.90
2023-04-25T10:20:10.854Z,99.90
2023-04-25T10:23:05.873Z,99.90
2023-04-25T10:25:55.796Z,99.90
2023-04-25T10:28:59.647Z,99.90
2023-04-25T10:31:48.377Z,99.90
2023-04-25T10:34:40.861Z,99.90
2023-04-25T10:37:28.982Z,99.90
2023-04-25T10:40:23.451Z,99.90
2023-04-25T10:43:29.499Z,99.90
2023-04-25T10:46:20.060Z,99.90
2023-04-25T10:49:10.019Z,99.90
2023-04-25T10:52:12.972Z,99.90
2023-04-25T10:55:01.530Z,99.90
2023-04-25T10:57:50.990Z,99.90
2023-04-25T11:00:53.212Z,99.90
2023-04-25T11:03:46.569Z,99.90
2023-04-25T11:06:39.681Z,99.90
2023-04-25T11:09:29.134Z,99.90
2023-04-25T11:12:18.611Z,99.90
2023-04-25T11:15:07.683Z,99.90
2023-04-25T11:17:56.168Z,99.90
2023-04-25T11:20:46.596Z,99.90
2023-04-25T11:23:34.719Z,99.90
2023-04-25T11:26:22.775Z,99.90
2023-04-25T11:29:11.168Z,98.70
2023-04-25T11:31:59.883Z,99.00
2023-04-25T11:34:48.659Z,99.60
2023-04-25T11:37:38.258Z,99.90
2023-04-25T11:40:26.461Z,99.40
2023-04-25T11:43:14.569Z,99.70
2023-04-25T11:46:02.682Z,99.20
2023-04-25T11:48:51.735Z,99.10
2023-04-25T11:51:40.577Z,99.80
2023-04-25T11:54:30.028Z,99.90
2023-04-25T11:57:20.732Z,99.50
2023-04-25T12:00:11.469Z,99.90
2023-04-25T12:03:00.951Z,99.40
2023-04-25T12:05:49.320Z,99.80
2023-04-25T12:08:37.793Z,99.50
2023-04-25T12:11:27.254Z,98.40
2023-04-25T12:14:22.733Z,97.90
2023-04-25T12:17:12.754Z,98.20
2023-04-25T12:20:00.856Z,97.20
2023-04-25T12:22:50.081Z,96.60
2023-04-25T12:25:39.431Z,96.60
2023-04-25T12:28:29.230Z,96.70
2023-04-25T12:31:17.480Z,97.30
2023-04-25T12:34:05.559Z,97.90
2023-04-25T12:36:54.231Z,97.60
2023-04-25T12:39:42.317Z,97.90
2023-04-25T12:42:30.413Z,97.60
2023-04-25T12:45:19.821Z,97.90
2023-04-25T12:48:07.951Z,97.70
2023-04-25T12:50:56.349Z,97.90
2023-04-25T12:53:44.392Z,97.30
2023-04-25T12:56:32.618Z,97.20
2023-04-25T12:59:21.501Z,97.30
2023-04-25T13:02:12.250Z,97.80
2023-04-25T13:05:00.721Z,97.40
2023-04-25T13:07:48.797Z,98.00
2023-04-25T13:10:39.261Z,98.30
2023-04-25T13:13:28.335Z,98.40
2023-04-25T13:16:16.628Z,99.00
2023-04-25T13:19:08.432Z,99.10
2023-04-25T13:21:56.522Z,98.90
2023-04-25T13:24:44.682Z,98.80
2023-04-25T13:27:33.619Z,98.60
2023-04-25T13:30:21.681Z,98.50
2023-04-25T13:33:09.779Z,97.50
2023-04-25T13:35:59.615Z,98.00
2023-04-25T13:38:48.910Z,98.00
2023-04-25T13:41:37.870Z,96.50
2023-04-25T13:44:25.894Z,96.60
2023-04-25T13:47:14.129Z,95.90
2023-04-25T13:50:04.107Z,96.10
2023-04-25T13:52:53.794Z,95.50
2023-04-25T13:55:41.878Z,95.60
2023-04-25T13:58:29.955Z,96.00
2023-04-25T14:01:18.060Z,96.30
2023-04-25T14:04:06.266Z,96.80
2023-04-25T14:06:54.392Z,96.20
2023-04-25T14:09:43.803Z,96.00
2023-04-25T14:12:31.880Z,96.80
2023-04-25T14:15:19.929Z,95.90
2023-04-25T14:18:08.216Z,95.40
2023-04-25T14:20:56.316Z,95.00
2023-04-25T14:23:44.738Z,94.40
2023-04-25T14:26:35.078Z,92.90
2023-04-25T14:29:23.220Z,92.40
2023-04-25T14:32:11.819Z,92.80
2023-04-25T14:34:59.887Z,91.80
2023-04-25T14:37:47.973Z,91.90
2023-04-25T14:40:36.061Z,91.30
2023-04-25T14:43:25.565Z,91.00
2023-04-25T14:46:13.704Z,91.70
2023-04-25T14:49:03.289Z,92.30
2023-04-25T14:51:52.517Z,93.10
2023-04-25T14:54:41.070Z,91.90
2023-04-25T14:57:29.107Z,90.60
2023-04-25T15:00:20.607Z,90.10
2023-04-25T15:03:10.649Z,89.70
2023-04-25T15:05:58.905Z,87.40
2023-04-25T15:08:47.112Z,86.40
2023-04-25T15:11:35.173Z,87.90
2023-04-25T15:14:23.276Z,87.80
2023-04-25T15:17:14.576Z,87.20
2023-04-25T15:20:02.666Z,82.50
2023-04-25T15:22:50.877Z,81.00
2023-04-25T15:25:39.145Z,84.20
2023-04-25T15:28:27.289Z,86.80
2023-04-25T15:31:15.363Z,84.70
2023-04-25T15:34:04.802Z,84.40
2023-04-25T15:36:52.874Z,79.60
2023-04-25T15:39:40.949Z,78.90
2023-04-25T15:42:29.051Z,80.90
2023-04-25T15:45:17.996Z,84.20
2023-04-25T15:48:06.517Z,83.20
2023-04-25T15:50:56.235Z,81.30
2023-04-25T15:53:44.294Z,81.70
2023-04-25T15:56:32.749Z,83.90
2023-04-25T15:59:20.793Z,83.70
2023-04-25T16:02:09.133Z,85.80
2023-04-25T16:04:57.975Z,87.50
2023-04-25T16:07:47.839Z,90.50
2023-04-25T16:10:36.643Z,92.40
2023-04-25T16:13:24.778Z,93.60
2023-04-25T16:16:12.991Z,94.30
2023-04-25T16:19:01.545Z,95.30
2023-04-25T16:21:49.683Z,95.60
2023-04-25T16:24:39.156Z,95.40
2023-04-25T16:27:27.236Z,94.80
2023-04-25T16:30:15.429Z,93.20
2023-04-25T16:33:03.782Z,91.50
2023-04-25T16:35:52.879Z,90.30
2023-04-25T16:38:41.273Z,88.30
2023-04-25T16:41:30.992Z,88.30
2023-04-25T16:44:19.036Z,86.80
2023-04-25T16:47:07.191Z,85.90
2023-04-25T16:49:55.348Z,84.50
2023-04-25T16:52:44.630Z,87.10
2023-04-25T16:55:32.793Z,89.30
2023-04-25T16:58:23.291Z,90.40
2023-04-25T17:01:16.001Z,91.20
2023-04-25T17:04:04.487Z,91.80
2023-04-25T17:06:52.666Z,92.40
2023-04-25T17:09:41.046Z,91.90
2023-04-25T17:12:29.165Z,91.20
2023-04-25T17:15:18.700Z,90.70
2023-04-25T17:18:06.875Z,90.30
2023-04-25T17:20:55.142Z,90.70
2023-04-25T17:23:45.761Z,91.20
2023-04-25T17:26:33.871Z,92.00
2023-04-25T17:29:23.747Z,92.90
2023-04-25T17:32:14.602Z,93.60
2023-04-25T17:35:04.152Z,94.30
2023-04-25T17:37:52.573Z,94.80
2023-04-25T17:40:40.645Z,94.80
2023-04-25T17:43:28.748Z,95.40
2023-04-25T17:46:16.811Z,95.80
2023-04-25T17:49:06.336Z,95.80
2023-04-25T17:51:54.444Z,96.20
2023-04-25T17:54:42.521Z,96.60
2023-04-25T17:57:31.627Z,96.70
2023-04-25T18:00:20.044Z,96.80
2023-04-25T18:03:08.472Z,97.00
2023-04-25T18:05:57.958Z,97.00
2023-04-25T18:08:46.066Z,97.20
2023-04-25T18:11:34.675Z,97.60
2023-04-25T18:14:24.148Z,97.80
2023-04-25T18:17:12.429Z,98.40
2023-04-25T18:20:01.757Z,98.90
2023-04-25T18:22:51.165Z,99.00
2023-04-25T18:25:39.279Z,99.30
2023-04-25T18:28:27.380Z,99.60
2023-04-25T18:31:17.343Z,99.90
2023-04-25T18:34:05.579Z,99.90
2023-04-25T18:36:55.425Z,99.90
2023-04-25T18:39:44.878Z,99.90
2023-04-25T18:42:33.161Z,99.90
2023-04-25T18:45:21.340Z,99.90
2023-04-25T18:48:09.417Z,99.90
2023-04-25T18:50:57.921Z,99.90
2023-04-25T18:53:46.526Z,99.90
2023-04-25T18:56:35.968Z,99.90
2023-04-25T18:59:24.053Z,99.90
2023-04-25T19:02:13.107Z,99.90
2023-04-25T19:05:01.507Z,99.90
2023-04-25T19:07:49.595Z,99.90
2023-04-25T19:10:37.861Z,99.90
2023-04-25T19:13:28.464Z,99.90
2023-04-25T19:16:17.410Z,99.90
2023-04-25T19:19:05.803Z,99.90
2023-04-25T19:21:53.988Z,99.90
2023-04-25T19:24:42.096Z,99.90
2023-04-25T19:27:30.354Z,99.90
2023-04-25T19:30:20.789Z,99.90
2023-04-25T19:33:09.695Z,99.90
2023-04-25T19:35:58.459Z,99.90
2023-04-25T19:38:47.800Z,99.90
2023-04-25T19:41:37.034Z,99.90
2023-04-25T19:44:25.695Z,99.90
2023-04-25T19:47:15.747Z,99.90
2023-04-25T19:50:04.342Z,99.90
2023-04-25T19:52:53.453Z,99.90
2023-04-25T19:55:42.484Z,99.90
2023-04-25T19:58:30.959Z,99.90
2023-04-25T20:01:22.094Z,99.90
2023-04-25T20:04:12.665Z,99.90
2023-04-25T20:07:01.013Z,99.90
2023-04-25T20:09:49.599Z,99.90
2023-04-25T20:12:40.145Z,99.90
2023-04-25T20:15:28.834Z,99.90
2023-04-25T20:18:17.408Z,99.90
2023-04-25T20:21:08.596Z,99.90
2023-04-25T20:23:58.177Z,99.90
2023-04-25T20:26:46.716Z,99.90
2023-04-25T20:29:35.659Z,99.90
2023-04-25T20:32:23.933Z,99.90
2023-04-25T20:35:13.941Z,99.90
2023-04-25T20:38:04.065Z,99.90
2023-04-25T20:40:52.672Z,99.90
2023-04-25T20:43:42.205Z,99.90
2023-04-25T20:46:30.772Z,99.90
2023-04-25T20:49:19.044Z,99.90
2023-04-25T20:52:07.796Z,99.90
2023-04-25T20:54:57.213Z,99.90
2023-04-25T20:57:45.308Z,99.90
2023-04-25T21:00:34.392Z,99.90
2023-04-25T21:03:22.671Z,99.90
2023-04-25T21:06:10.897Z,99.90
2023-04-25T21:08:58.954Z,99.90
2023-04-25T21:11:48.508Z,99.90
2023-04-25T21:14:36.862Z,99.90
2023-04-25T21:17:24.967Z,99.90
2023-04-25T21:20:13.620Z,99.90
2023-04-25T21:23:01.719Z,99.90
2023-04-25T21:25:51.598Z,99.90
2023-04-25T21:28:40.989Z,99.90
2023-04-25T21:31:29.214Z,99.90
2023-04-25T21:34:17.406Z,99.90
2023-04-25T21:37:05.829Z,99.90
2023-04-25T21:39:54.330Z,99.90
2023-04-25T21:42:44.493Z,99.90
2023-04-25T21:45:38.359Z,99.90
2023-04-25T21:48:32.828Z,99.90
2023-04-25T21:51:21.092Z,99.90
2023-04-25T21:54:09.169Z,99.90
2023-04-25T21:56:57.650Z,99.90
2023-04-25T21:59:45.736Z,99.90
2023-04-25T22:02:36.832Z,99.90
2023-04-25T22:05:26.943Z,99.90
2023-04-25T22:08:15.753Z,99.90
2023-04-25T22:11:06.972Z,99.90
2023-04-25T22:13:55.463Z,99.90
2023-04-25T22:16:43.554Z,99.90
2023-04-25T22:19:33.085Z,99.90
2023-04-25T22:22:21.653Z,99.90
2023-04-25T22:25:10.021Z,99.90
2023-04-25T22:27:58.100Z,99.90
2023-04-25T22:30:46.248Z,99.90
2023-04-25T22:33:34.482Z,99.90
2023-04-25T22:36:24.222Z,99.90
2023-04-25T22:39:14.761Z,99.90
2023-04-25T22:42:03.525Z,99.90
2023-04-25T22:44:52.115Z,99.90
2023-04-25T22:47:40.688Z,99.90
2023-04-25T22:50:28.846Z,99.90
2023-04-25T22:53:18.713Z,99.90
2023-04-25T22:56:07.250Z,99.90
2023-04-25T22:58:55.318Z,99.90
2023-04-25T23:01:43.777Z,99.90
2023-04-25T23:04:31.974Z,99.90
2023-04-25T23:07:20.217Z,99.90
2023-04-25T23:10:10.161Z,99.90
2023-04-25T23:13:00.784Z,99.90
2023-04-25T23:15:48.915Z,99.90
2023-04-25T23:18:37.398Z,99.90
2023-04-25T23:21:25.488Z,99.90
2023-04-25T23:24:13.570Z,99.90
2023-04-25T23:27:03.600Z,99.90
2023-04-25T23:29:54.724Z,99.90
2023-04-25T23:32:43.173Z,99.90
2023-04-25T23:35:31.289Z,99.90
2023-04-25T23:38:20.832Z,99.90
2023-04-25T23:41:08.880Z,99.90
2023-04-25T23:43:58.643Z,99.90
2023-04-25T23:46:46.920Z,99.90
2023-04-25T23:49:34.936Z,99.90
2023-04-25T23:52:23.539Z,99.90
2023-04-25T23:55:11.584Z,99.90
2023-04-25T23:57:59.704Z,99.90
